createdAt,value
2023-03-26T00:00:48.704Z,10.61
2023-03-26T00:04:13.496Z,10.57
2023-03-26T00:07:16.726Z,10.62
2023-03-26T00:10:19.848Z,10.55
2023-03-26T00:13:22.502Z,10.49
2023-03-26T00:16:29.744Z,10.57
2023-03-26T00:19:32.551Z,10.54
2023-03-26T00:22:35.632Z,10.67
2023-03-26T00:25:41.619Z,10.59
2023-03-26T00:28:44.738Z,10.55
2023-03-26T00:31:47.319Z,10.59
2023-03-26T00:34:52.056Z,10.56
2023-03-26T00:37:54.772Z,10.52
2023-03-26T00:41:06.238Z,10.54
2023-03-26T00:44:09.723Z,10.51
2023-03-26T00:47:13.355Z,10.56
2023-03-26T00:50:16.395Z,10.47
2023-03-26T00:53:20.139Z,10.50
2023-03-26T00:56:22.859Z,10.55
2023-03-26T00:59:30.477Z,10.56
2023-03-26T01:02:33.286Z,10.48
2023-03-26T01:05:44.422Z,10.49
2023-03-26T01:08:52.940Z,10.50
2023-03-26T01:11:56.218Z,10.47
2023-03-26T01:15:01.425Z,10.50
2023-03-26T01:18:09.888Z,10.55
2023-03-26T01:21:13.959Z,10.52
2023-03-26T01:24:17.115Z,10.52
2023-03-26T01:27:24.410Z,10.48
2023-03-26T01:30:38.798Z,10.57
2023-03-26T01:33:41.613Z,10.59
2023-03-26T01:36:50.798Z,10.47
2023-03-26T01:39:57.609Z,10.50
2023-03-26T01:43:11.226Z,10.45
2023-03-26T01:46:16.542Z,10.49
2023-03-26T01:49:20.573Z,10.49
2023-03-26T01:52:26.115Z,10.53
2023-03-26T01:55:54.009Z,10.48
2023-03-26T01:59:20.141Z,10.46
2023-03-26T02:03:02.184Z,10.46
2023-03-26T02:06:16.402Z,10.51
2023-03-26T02:09:25.057Z,10.48
2023-03-26T02:12:29.625Z,10.48
2023-03-26T02:15:33.173Z,10.42
2023-03-26T02:18:41.765Z,10.41
2023-03-26T02:21:46.031Z,10.40
2023-03-26T02:24:48.792Z,10.40
2023-03-26T02:27:53.151Z,10.42
2023-03-26T02:30:57.723Z,10.47
2023-03-26T02:34:00.902Z,10.52
2023-03-26T02:37:03.933Z,10.38
2023-03-26T02:40:11.327Z,10.37
2023-03-26T02:43:14.174Z,10.32
2023-03-26T02:46:19.466Z,10.34
2023-03-26T02:49:23.693Z,10.31
2023-03-26T02:52:27.513Z,10.29
2023-03-26T02:55:31.390Z,10.24
2023-03-26T02:58:35.773Z,10.22
2023-03-26T03:01:42.782Z,10.29
2023-03-26T03:04:46.215Z,10.26
2023-03-26T03:07:48.818Z,10.17
2023-03-26T03:11:02.730Z,10.15
2023-03-26T03:14:05.641Z,10.09
2023-03-26T03:17:08.761Z,10.08
2023-03-26T03:20:12.027Z,10.05
2023-03-26T03:23:16.061Z,10.01
2023-03-26T03:26:23.194Z,9.98
2023-03-26T03:29:26.474Z,9.96
2023-03-26T03:32:29.816Z,9.99
2023-03-26T03:35:33.772Z,10.00
2023-03-26T03:38:41.481Z,10.01
2023-03-26T03:41:44.814Z,10.00
2023-03-26T03:44:47.862Z,9.98
2023-03-26T03:47:53.245Z,9.96
2023-03-26T03:50:57.019Z,9.96
2023-03-26T03:54:00.498Z,10.05
2023-03-26T03:57:03.667Z,10.28
2023-03-26T04:00:09.178Z,10.15
2023-03-26T04:03:19.579Z,10.00
2023-03-26T04:06:38.784Z,10.06
2023-03-26T04:09:41.711Z,10.00
2023-03-26T04:12:45.722Z,10.03
2023-03-26T04:15:48.990Z,9.95
2023-03-26T04:18:52.060Z,9.79
2023-03-26T04:21:54.541Z,9.58
2023-03-26T04:24:57.646Z,9.62
2023-03-26T04:28:06.532Z,9.47
2023-03-26T04:31:15.794Z,9.54
2023-03-26T04:34:26.686Z,9.58
2023-03-26T04:37:36.617Z,9.45
2023-03-26T04:40:39.867Z,9.46
2023-03-26T04:43:47.392Z,9.48
2023-03-26T04:46:52.974Z,9.65
2023-03-26T04:49:56.552Z,9.66
2023-03-26T04:52:59.420Z,9.63
2023-03-26T04:56:33.731Z,9.71
2023-03-26T04:59:41.446Z,9.67
2023-03-26T05:02:46.488Z,9.69
2023-03-26T05:05:49.823Z,9.81
2023-03-26T05:08:52.947Z,10.00
2023-03-26T05:11:58.413Z,10.05
2023-03-26T05:15:01.719Z,10.20
2023-03-26T05:18:05.050Z,10.33
2023-03-26T05:21:08.710Z,10.17
2023-03-26T05:24:11.385Z,10.25
2023-03-26T05:27:20.264Z,10.41
2023-03-26T05:30:23.042Z,10.55
2023-03-26T05:33:26.390Z,10.66
2023-03-26T05:36:29.853Z,10.75
2023-03-26T05:39:35.603Z,10.91
2023-03-26T05:42:40.653Z,11.03
2023-03-26T05:45:47.342Z,11.12
2023-03-26T05:48:52.104Z,11.18
2023-03-26T05:51:55.637Z,11.21
2023-03-26T05:54:59.742Z,11.47
2023-03-26T05:58:15.499Z,11.61
2023-03-26T06:01:26.454Z,11.93
2023-03-26T06:04:32.894Z,11.75
2023-03-26T06:07:36.158Z,11.58
2023-03-26T06:10:39.581Z,11.67
2023-03-26T06:13:42.769Z,11.57
2023-03-26T06:16:46.579Z,11.66
2023-03-26T06:19:49.484Z,11.62
2023-03-26T06:22:53.459Z,11.60
2023-03-26T06:25:56.828Z,11.74
2023-03-26T06:29:00.598Z,11.77
2023-03-26T06:32:16.297Z,11.84
2023-03-26T06:35:22.767Z,11.98
2023-03-26T06:38:25.450Z,12.10
2023-03-26T06:41:29.840Z,12.26
2023-03-26T06:44:32.675Z,12.35
2023-03-26T06:47:38.352Z,12.52
2023-03-26T06:50:42.972Z,12.81
2023-03-26T06:53:46.377Z,13.17
2023-03-26T06:56:51.540Z,13.48
2023-03-26T06:59:55.236Z,13.78
2023-03-26T07:03:06.231Z,14.02
2023-03-26T07:06:19.725Z,14.09
2023-03-26T07:09:25.576Z,14.43
2023-03-26T07:12:29.943Z,14.65
2023-03-26T07:15:32.891Z,14.98
2023-03-26T07:18:37.877Z,15.37
2023-03-26T07:21:42.198Z,15.64
2023-03-26T07:24:46.403Z,16.08
2023-03-26T07:27:59.193Z,16.42
2023-03-26T07:31:14.686Z,16.64
2023-03-26T07:34:46.226Z,16.68
2023-03-26T07:38:06.276Z,16.71
2023-03-26T07:41:14.045Z,16.83
2023-03-26T07:44:58.956Z,17.02
2023-03-26T07:48:04.555Z,17.21
2023-03-26T07:51:08.559Z,17.46
2023-03-26T07:54:14.292Z,17.86
2023-03-26T07:57:38.648Z,17.80
2023-03-26T08:00:52.416Z,18.33
2023-03-26T08:04:24.950Z,18.45
2023-03-26T08:07:51.644Z,17.98
2023-03-26T08:11:12.750Z,17.92
2023-03-26T08:14:35.528Z,17.47
2023-03-26T08:18:00.196Z,17.07
2023-03-26T08:21:14.286Z,16.73
2023-03-26T08:24:22.954Z,16.64
2023-03-26T08:27:40.339Z,16.57
2023-03-26T08:30:44.095Z,16.63
2023-03-26T08:33:46.857Z,16.73
2023-03-26T08:36:49.964Z,16.72
2023-03-26T08:39:52.745Z,16.40
2023-03-26T08:43:26.818Z,16.04
2023-03-26T08:47:03.559Z,15.72
2023-03-26T08:50:09.832Z,15.46
2023-03-26T08:53:39.439Z,15.22
2023-03-26T08:57:18.534Z,15.22
2023-03-26T09:00:45.528Z,15.43
2023-03-26T09:04:26.199Z,15.67
2023-03-26T09:08:05.423Z,15.91
2023-03-26T09:11:47.425Z,16.61
2023-03-26T09:15:28.514Z,17.58
2023-03-26T09:18:50.771Z,17.30
2023-03-26T09:22:30.415Z,17.81
2023-03-26T09:26:12.194Z,18.43
2023-03-26T09:29:32.799Z,17.91
2023-03-26T09:33:22.975Z,17.73
2023-03-26T09:37:05.901Z,17.73
2023-03-26T09:40:19.156Z,17.64
2023-03-26T09:43:46.390Z,17.67
2023-03-26T09:47:14.358Z,17.49
2023-03-26T09:50:37.257Z,17.56
2023-03-26T09:53:59.071Z,17.91
2023-03-26T09:57:13.335Z,19.04
2023-03-26T10:00:42.857Z,19.65
2023-03-26T10:03:57.992Z,21.00
2023-03-26T10:07:22.322Z,22.20
2023-03-26T10:10:52.224Z,22.12
2023-03-26T10:14:05.665Z,21.50
2023-03-26T10:17:27.210Z,21.15
2023-03-26T10:21:13.834Z,20.66
2023-03-26T10:24:22.555Z,19.48
2023-03-26T10:27:39.967Z,18.50
2023-03-26T10:31:01.330Z,17.72
2023-03-26T10:34:28.134Z,17.27
2023-03-26T10:37:41.145Z,16.61
2023-03-26T10:40:50.629Z,15.80
2023-03-26T10:44:09.172Z,15.18
2023-03-26T10:47:35.407Z,14.79
2023-03-26T10:50:57.382Z,14.80
2023-03-26T10:54:27.178Z,15.38
2023-03-26T10:57:41.264Z,16.69
2023-03-26T11:00:52.556Z,17.34
2023-03-26T11:04:10.955Z,17.27
2023-03-26T11:07:39.978Z,17.55
2023-03-26T11:10:45.833Z,17.72
2023-03-26T11:14:07.068Z,17.85
2023-03-26T11:17:47.914Z,17.57
2023-03-26T11:21:19.510Z,17.26
2023-03-26T11:24:45.353Z,17.07
2023-03-26T11:28:09.330Z,17.80
2023-03-26T11:31:19.804Z,18.21
2023-03-26T11:34:31.154Z,18.78
2023-03-26T11:37:43.630Z,18.69
2023-03-26T11:40:51.017Z,18.17
2023-03-26T11:44:03.968Z,17.86
2023-03-26T11:47:10.670Z,18.26
2023-03-26T11:50:20.683Z,19.03
2023-03-26T11:53:29.221Z,20.08
2023-03-26T11:56:37.035Z,20.28
2023-03-26T11:59:56.246Z,20.41
2023-03-26T12:03:00.486Z,20.69
2023-03-26T12:06:04.766Z,20.20
2023-03-26T12:09:20.133Z,20.14
2023-03-26T12:12:46.041Z,20.18
2023-03-26T12:15:49.536Z,19.99
2023-03-26T12:19:18.562Z,19.83
2023-03-26T12:22:36.484Z,19.52
2023-03-26T12:25:39.921Z,19.36
2023-03-26T12:28:46.501Z,19.62
2023-03-26T12:32:07.298Z,19.28
2023-03-26T12:35:26.788Z,18.94
2023-03-26T12:38:33.416Z,19.15
2023-03-26T12:44:44.625Z,18.74
2023-03-26T12:45:06.889Z,19.01
2023-03-26T12:48:15.913Z,19.42
2023-03-26T12:51:41.911Z,19.40
2023-03-26T12:54:53.693Z,19.38
2023-03-26T12:58:00.027Z,19.85
2023-03-26T13:01:36.625Z,19.86
2023-03-26T13:05:13.300Z,19.56
2023-03-26T13:08:36.895Z,19.19
2023-03-26T13:11:48.984Z,18.73
2023-03-26T13:15:00.866Z,18.31
2023-03-26T13:18:25.339Z,18.36
2023-03-26T13:21:46.777Z,18.73
2023-03-26T13:25:06.892Z,19.23
2023-03-26T13:28:26.671Z,18.90
2023-03-26T13:31:44.262Z,18.81
2023-03-26T13:35:09.580Z,18.57
2023-03-26T13:38:29.280Z,18.42
2023-03-26T13:41:47.261Z,18.23
2023-03-26T13:45:20.839Z,18.67
2023-03-26T13:48:28.488Z,19.18
2023-03-26T13:51:59.247Z,19.54
2023-03-26T13:55:01.716Z,19.34
2023-03-26T13:58:10.944Z,18.99
2023-03-26T14:01:19.557Z,18.46
2023-03-26T14:04:32.276Z,18.68
2023-03-26T14:07:43.118Z,18.79
2023-03-26T14:10:52.849Z,18.40
2023-03-26T14:14:04.210Z,18.39
2023-03-26T14:17:46.471Z,18.56
2023-03-26T14:21:17.140Z,18.55
2023-03-26T14:24:35.545Z,18.29
2023-03-26T14:27:51.056Z,18.09
2023-03-26T14:30:58.085Z,18.33
2023-03-26T14:34:16.172Z,18.22
2023-03-26T14:37:40.671Z,18.03
2023-03-26T14:41:10.985Z,18.08
2023-03-26T14:44:47.678Z,18.24
2023-03-26T14:48:19.584Z,18.23
2023-03-26T14:51:37.924Z,18.18
2023-03-26T14:54:44.738Z,17.90
2023-03-26T14:58:09.266Z,17.78
2023-03-26T15:01:20.913Z,17.78
2023-03-26T15:04:46.502Z,17.70
2023-03-26T15:08:19.941Z,17.70
2023-03-26T15:11:46.350Z,17.55
2023-03-26T15:15:07.146Z,17.44
2023-03-26T15:18:47.585Z,17.35
2023-03-26T15:22:26.041Z,17.23
2023-03-26T15:25:48.366Z,17.25
2023-03-26T15:28:56.864Z,17.17
2023-03-26T15:32:30.284Z,17.21
2023-03-26T15:35:44.369Z,17.08
2023-03-26T15:38:56.719Z,17.03
2023-03-26T15:42:17.840Z,16.97
2023-03-26T15:45:30.381Z,16.95
2023-03-26T15:48:37.458Z,16.90
2023-03-26T15:51:53.698Z,16.90
2023-03-26T15:55:31.151Z,16.83
2023-03-26T15:58:45.259Z,16.83
2023-03-26T16:02:12.155Z,16.62
2023-03-26T16:05:19.616Z,16.65
2023-03-26T16:08:38.746Z,16.62
2023-03-26T16:11:54.110Z,16.60
2023-03-26T16:15:07.542Z,16.52
2023-03-26T16:18:12.039Z,16.56
2023-03-26T16:21:36.534Z,16.45
2023-03-26T16:24:44.633Z,16.35
2023-03-26T16:27:47.394Z,16.16
2023-03-26T16:31:23.414Z,16.22
2023-03-26T16:34:49.805Z,16.19
2023-03-26T16:38:11.524Z,16.05
2023-03-26T16:41:29.809Z,15.88
2023-03-26T16:44:51.992Z,15.82
2023-03-26T16:48:09.653Z,15.75
2023-03-26T16:51:38.931Z,15.67
2023-03-26T16:54:47.382Z,15.58
2023-03-26T16:58:17.155Z,15.53
2023-03-26T17:01:57.621Z,15.60
2023-03-26T17:05:26.727Z,15.38
2023-03-26T17:08:53.371Z,15.34
2023-03-26T17:12:19.864Z,15.38
2023-03-26T17:15:42.312Z,15.29
2023-03-26T17:18:57.671Z,15.20
2023-03-26T17:22:18.622Z,15.05
2023-03-26T17:25:24.840Z,15.12
2023-03-26T17:28:47.008Z,15.23
2023-03-26T17:32:12.347Z,15.07
2023-03-26T17:35:15.545Z,15.06
2023-03-26T17:38:18.682Z,14.96
2023-03-26T17:41:56.468Z,14.94
2023-03-26T17:45:17.620Z,14.88
2023-03-26T17:48:23.959Z,14.84
2023-03-26T17:51:47.346Z,14.77
2023-03-26T17:54:53.287Z,14.75
2023-03-26T17:58:01.757Z,14.80
2023-03-26T18:01:34.777Z,14.89
2023-03-26T18:04:42.186Z,14.76
2023-03-26T18:07:47.971Z,14.80
2023-03-26T18:11:15.703Z,14.71
2023-03-26T18:14:24.348Z,14.69
2023-03-26T18:17:38.495Z,14.81
2023-03-26T18:20:43.889Z,14.69
2023-03-26T18:23:50.674Z,14.63
2023-03-26T18:27:01.743Z,14.62
2023-03-26T18:30:18.989Z,14.62
2023-03-26T18:33:21.560Z,14.86
2023-03-26T18:36:27.625Z,14.99
2023-03-26T18:39:30.122Z,14.83
2023-03-26T18:42:34.120Z,14.66
2023-03-26T18:45:39.410Z,14.61
2023-03-26T18:48:44.094Z,14.62
2023-03-26T18:51:56.729Z,14.65
2023-03-26T18:55:02.969Z,14.62
2023-03-26T18:58:30.114Z,14.59
2023-03-26T19:01:36.621Z,14.59
2023-03-26T19:04:41.765Z,14.69
2023-03-26T19:07:50.310Z,14.59
2023-03-26T19:10:54.656Z,14.50
2023-03-26T19:14:06.998Z,14.54
2023-03-26T19:17:11.802Z,14.62
2023-03-26T19:20:20.077Z,14.39
2023-03-26T19:23:28.732Z,14.32
2023-03-26T19:26:32.540Z,14.27
2023-03-26T19:29:36.552Z,14.24
2023-03-26T19:32:39.803Z,14.19
2023-03-26T19:35:44.100Z,14.15
2023-03-26T19:38:53.027Z,14.09
2023-03-26T19:41:55.710Z,14.13
2023-03-26T19:45:02.182Z,14.20
2023-03-26T19:48:14.989Z,14.10
2023-03-26T19:51:20.401Z,14.06
2023-03-26T19:54:23.053Z,14.05
2023-03-26T19:57:26.245Z,14.05
2023-03-26T20:00:28.765Z,14.11
2023-03-26T20:03:40.387Z,14.08
2023-03-26T20:06:44.297Z,14.08
2023-03-26T20:09:52.254Z,14.03
2023-03-26T20:12:55.631Z,13.96
2023-03-26T20:16:06.077Z,13.94
2023-03-26T20:19:11.128Z,13.94
2023-03-26T20:22:23.634Z,13.94
2023-03-26T20:25:34.150Z,13.97
2023-03-26T20:28:47.365Z,13.94
2023-03-26T20:31:51.269Z,13.88
2023-03-26T20:34:54.928Z,13.89
2023-03-26T20:37:57.590Z,14.08
2023-03-26T20:41:00.594Z,13.94
2023-03-26T20:44:05.057Z,13.74
2023-03-26T20:47:10.939Z,13.72
2023-03-26T20:50:15.679Z,13.69
2023-03-26T20:53:20.362Z,13.71
2023-03-26T20:56:23.569Z,13.97
2023-03-26T20:59:28.253Z,13.85
2023-03-26T21:02:31.012Z,13.68
2023-03-26T21:05:35.341Z,13.63
2023-03-26T21:08:38.343Z,13.50
2023-03-26T21:11:47.326Z,13.42
2023-03-26T21:14:50.127Z,13.37
2023-03-26T21:17:55.033Z,13.40
2023-03-26T21:21:32.118Z,13.40
2023-03-26T21:25:15.338Z,13.33
2023-03-26T21:28:42.863Z,13.44
2023-03-26T21:31:46.786Z,13.48
2023-03-26T21:34:58.589Z,13.49
2023-03-26T21:38:06.342Z,13.32
2023-03-26T21:41:20.816Z,13.28
2023-03-26T21:44:24.223Z,13.42
2023-03-26T21:47:27.173Z,13.34
2023-03-26T21:50:30.639Z,13.28
2023-03-26T21:53:35.538Z,13.28
2023-03-26T21:56:56.686Z,13.31
2023-03-26T22:00:23.686Z,13.17
2023-03-26T22:03:37.749Z,13.17
2023-03-26T22:06:54.775Z,13.18
2023-03-26T22:09:57.874Z,13.08
2023-03-26T22:13:00.447Z,13.10
2023-03-26T22:16:04.906Z,13.06
2023-03-26T22:19:08.612Z,12.99
2023-03-26T22:22:12.547Z,12.94
2023-03-26T22:25:17.753Z,12.93
2023-03-26T22:28:20.871Z,13.00
2023-03-26T22:31:27.179Z,13.01
2023-03-26T22:34:30.699Z,13.02
2023-03-26T22:37:35.708Z,12.87
2023-03-26T22:40:39.229Z,13.04
2023-03-26T22:43:41.750Z,12.77
2023-03-26T22:46:47.360Z,12.74
2023-03-26T22:49:49.893Z,12.62
2023-03-26T22:52:52.953Z,12.39
2023-03-26T22:55:55.515Z,12.33
2023-03-26T22:58:58.911Z,12.26
2023-03-26T23:02:01.575Z,12.13
2023-03-26T23:05:04.864Z,12.11
2023-03-26T23:08:07.875Z,12.14
2023-03-26T23:11:19.356Z,12.10
2023-03-26T23:14:22.261Z,11.87
2023-03-26T23:17:25.855Z,11.68
2023-03-26T23:20:29.999Z,11.38
2023-03-26T23:23:34.968Z,11.10
2023-03-26T23:26:49.443Z,11.11
2023-03-26T23:29:53.510Z,11.03
2023-03-26T23:32:57.304Z,11.00
2023-03-26T23:36:04.316Z,11.05
2023-03-26T23:39:11.003Z,11.16
2023-03-26T23:42:14.105Z,11.10
2023-03-26T23:45:16.651Z,11.00
2023-03-26T23:48:22.805Z,10.94
2023-03-26T23:51:25.619Z,10.80
2023-03-26T23:54:30.143Z,10.71
2023-03-26T23:57:33.024Z,10.62
